createdAt,value
2023-03-19T00:02:16.580Z,94912.63
2023-03-19T00:04:44.098Z,94910.06
2023-03-19T00:07:11.236Z,94906.44
2023-03-19T00:09:37.849Z,94909.72
2023-03-19T00:12:05.181Z,94907.91
2023-03-19T00:14:31.789Z,94908.09
2023-03-19T00:16:58.447Z,94892.34
2023-03-19T00:19:25.275Z,94905.13
2023-03-19T00:21:52.218Z,94899.09
2023-03-19T00:24:19.068Z,94894.16
2023-03-19T00:26:45.707Z,94896.47
2023-03-19T00:29:12.755Z,94900.72
2023-03-19T00:31:40.651Z,94906.31
2023-03-19T00:34:08.167Z,94905.81
2023-03-19T00:36:35.557Z,94903.84
2023-03-19T00:39:02.156Z,94912.53
2023-03-19T00:41:28.928Z,94909.09
2023-03-19T00:43:57.328Z,94912.88
2023-03-19T00:46:25.519Z,94912.72
2023-03-19T00:48:55.438Z,94920.09
2023-03-19T00:51:23.605Z,94925.63
2023-03-19T00:53:51.060Z,94920.72
2023-03-19T00:56:18.301Z,94919.25
2023-03-19T00:58:46.677Z,94913.69
2023-03-19T01:01:16.769Z,94902.22
2023-03-19T01:03:45.026Z,94909.44
2023-03-19T01:06:12.150Z,94912.19
2023-03-19T01:08:39.240Z,94914.16
2023-03-19T01:11:12.907Z,94927.09
2023-03-19T01:13:39.629Z,94913.19
2023-03-19T01:16:06.974Z,94917.09
2023-03-19T01:18:33.671Z,94916.94
2023-03-19T01:21:00.818Z,94914.66
2023-03-19T01:23:29.352Z,94923.94
2023-03-19T01:25:56.958Z,94934.84
2023-03-19T01:28:25.172Z,94936.78
2023-03-19T01:30:52.337Z,94934.75
2023-03-19T01:33:44.812Z,94944.75
2023-03-19T01:36:17.727Z,94941.59
2023-03-19T01:39:04.816Z,94931.97
2023-03-19T01:41:31.877Z,94931.81
2023-03-19T01:44:31.524Z,94932.41
2023-03-19T01:47:41.785Z,94941.28
2023-03-19T01:50:25.875Z,94937.38
2023-03-19T01:53:06.714Z,94938.19
2023-03-19T01:55:47.213Z,94936.72
2023-03-19T01:58:37.596Z,94933.59
2023-03-19T02:01:13.604Z,94938.16
2023-03-19T02:03:44.942Z,94933.47
2023-03-19T02:06:18.889Z,94936.56
2023-03-19T02:08:46.747Z,94943.91
2023-03-19T02:11:13.860Z,94948.34
2023-03-19T02:13:40.475Z,94947.19
2023-03-19T02:16:07.554Z,94940.50
2023-03-19T02:18:34.607Z,94936.56
2023-03-19T02:21:09.826Z,94933.13
2023-03-19T02:23:49.838Z,94926.25
2023-03-19T02:26:22.060Z,94924.25
2023-03-19T02:28:52.620Z,94920.69
2023-03-19T02:31:24.820Z,94932.25
2023-03-19T02:34:05.996Z,94933.22
2023-03-19T02:36:47.325Z,94932.56
2023-03-19T02:39:22.685Z,94943.00
2023-03-19T02:41:51.940Z,94935.66
2023-03-19T02:44:19.984Z,94941.53
2023-03-19T02:46:47.452Z,94945.38
2023-03-19T02:49:14.095Z,94943.53
2023-03-19T02:51:41.884Z,94942.88
2023-03-19T02:54:08.824Z,94937.34
2023-03-19T02:56:35.583Z,94945.00
2023-03-19T02:59:02.248Z,94950.59
2023-03-19T03:01:29.962Z,94955.00
2023-03-19T03:03:56.561Z,94954.22
2023-03-19T03:06:23.258Z,94961.25
2023-03-19T03:08:49.833Z,94963.28
2023-03-19T03:11:16.450Z,94961.91
2023-03-19T03:13:42.985Z,94968.78
2023-03-19T03:16:09.662Z,94965.41
2023-03-19T03:18:36.720Z,94963.94
2023-03-19T03:21:03.552Z,94963.09
2023-03-19T03:23:30.134Z,94970.13
2023-03-19T03:25:56.675Z,94963.28
2023-03-19T03:28:23.288Z,94958.94
2023-03-19T03:30:50.371Z,94957.31
2023-03-19T03:33:17.357Z,94967.75
2023-03-19T03:35:43.937Z,94969.69
2023-03-19T03:38:11.373Z,94964.97
2023-03-19T03:40:38.089Z,94970.69
2023-03-19T03:43:04.769Z,94977.31
2023-03-19T03:45:33.545Z,94983.88
2023-03-19T03:48:00.670Z,94976.41
2023-03-19T03:50:28.190Z,94982.59
2023-03-19T03:52:56.988Z,94978.25
2023-03-19T03:55:23.559Z,94984.00
2023-03-19T03:57:50.150Z,94988.91
2023-03-19T04:00:16.943Z,94985.69
2023-03-19T04:02:44.680Z,94988.84
2023-03-19T04:05:14.709Z,94994.56
2023-03-19T04:07:41.411Z,94992.66
2023-03-19T04:10:09.591Z,94990.53
2023-03-19T04:12:37.880Z,94989.03
2023-03-19T04:15:05.924Z,94991.16
2023-03-19T04:17:33.050Z,94992.66
2023-03-19T04:20:00.016Z,94998.25
2023-03-19T04:22:27.282Z,94998.94
2023-03-19T04:24:53.936Z,95010.56
2023-03-19T04:27:20.956Z,94999.75
2023-03-19T04:29:47.558Z,95003.03
2023-03-19T04:32:16.694Z,95002.84
2023-03-19T04:34:43.421Z,95006.13
2023-03-19T04:37:10.335Z,95008.63
2023-03-19T04:39:44.422Z,95011.72
2023-03-19T04:42:11.458Z,95003.53
2023-03-19T04:45:08.236Z,95007.63
2023-03-19T04:47:35.640Z,94997.50
2023-03-19T04:50:02.806Z,95000.47
2023-03-19T04:52:31.849Z,95005.22
2023-03-19T04:54:58.375Z,95005.22
2023-03-19T04:57:24.891Z,95011.31
2023-03-19T04:59:53.870Z,95013.09
2023-03-19T05:02:21.941Z,95011.97
2023-03-19T05:04:48.621Z,95016.75
2023-03-19T05:07:15.461Z,95016.91
2023-03-19T05:09:43.920Z,95011.19
2023-03-19T05:12:12.279Z,95025.25
2023-03-19T05:14:44.062Z,95034.94
2023-03-19T05:17:18.428Z,95030.69
2023-03-19T05:20:01.447Z,95041.19
2023-03-19T05:22:29.805Z,95039.53
2023-03-19T05:24:57.726Z,95037.88
2023-03-19T05:27:25.040Z,95041.81
2023-03-19T05:30:08.269Z,95051.00
2023-03-19T05:32:40.901Z,95056.41
2023-03-19T05:35:14.352Z,95059.03
2023-03-19T05:37:42.493Z,95060.81
2023-03-19T05:40:09.915Z,95056.00
2023-03-19T05:42:37.861Z,95065.16
2023-03-19T05:45:05.386Z,95061.53
2023-03-19T05:47:50.152Z,95077.28
2023-03-19T05:50:19.167Z,95078.63
2023-03-19T05:53:05.676Z,95084.00
2023-03-19T05:55:35.244Z,95090.66
2023-03-19T05:58:07.655Z,95090.97
2023-03-19T06:00:34.523Z,95101.28
2023-03-19T06:03:01.480Z,95103.41
2023-03-19T06:05:28.132Z,95102.75
2023-03-19T06:07:59.458Z,95112.41
2023-03-19T06:10:42.325Z,95112.50
2023-03-19T06:13:11.289Z,95110.34
2023-03-19T06:15:41.058Z,95122.59
2023-03-19T06:18:14.158Z,95127.91
2023-03-19T06:20:40.812Z,95131.97
2023-03-19T06:23:07.972Z,95127.75
2023-03-19T06:25:34.554Z,95131.19
2023-03-19T06:28:01.100Z,95138.13
2023-03-19T06:30:34.283Z,95147.69
2023-03-19T06:33:03.901Z,95148.78
2023-03-19T06:35:32.255Z,95154.34
2023-03-19T06:37:58.935Z,95159.81
2023-03-19T06:40:25.535Z,95158.47
2023-03-19T06:42:52.304Z,95168.72
2023-03-19T06:45:19.389Z,95170.00
2023-03-19T06:47:47.546Z,95168.88
2023-03-19T06:50:18.911Z,95164.56
2023-03-19T06:52:45.903Z,95163.75
2023-03-19T06:55:12.599Z,95168.44
2023-03-19T06:57:39.245Z,95167.00
2023-03-19T07:00:07.521Z,95165.88
2023-03-19T07:02:34.107Z,95172.13
2023-03-19T07:05:00.628Z,95179.72
2023-03-19T07:07:27.280Z,95179.16
2023-03-19T07:09:53.863Z,95180.44
2023-03-19T07:12:20.758Z,95192.44
2023-03-19T07:14:47.327Z,95196.78
2023-03-19T07:17:13.903Z,95209.09
2023-03-19T07:19:40.671Z,95206.41
2023-03-19T07:22:07.759Z,95212.72
2023-03-19T07:24:34.329Z,95215.31
2023-03-19T07:27:00.847Z,95226.00
2023-03-19T07:29:27.373Z,95226.31
2023-03-19T07:31:53.925Z,95228.06
2023-03-19T07:34:20.467Z,95229.19
2023-03-19T07:36:47.301Z,95238.03
2023-03-19T07:39:13.854Z,95238.06
2023-03-19T07:41:40.694Z,95241.59
2023-03-19T07:44:11.206Z,95242.28
2023-03-19T07:46:37.751Z,95248.50
2023-03-19T07:49:04.264Z,95248.66
2023-03-19T07:51:30.897Z,95259.94
2023-03-19T07:53:57.443Z,95254.47
2023-03-19T07:56:24.064Z,95247.84
2023-03-19T07:58:51.655Z,95235.88
2023-03-19T08:01:18.616Z,95243.03
2023-03-19T08:03:45.192Z,95242.97
2023-03-19T08:06:11.780Z,95242.53
2023-03-19T08:08:38.398Z,95245.31
2023-03-19T08:11:05.221Z,95243.72
2023-03-19T08:13:31.815Z,95243.63
2023-03-19T08:15:58.495Z,95246.72
2023-03-19T08:18:25.071Z,95255.09
2023-03-19T08:20:51.629Z,95255.66
2023-03-19T08:23:18.423Z,95247.25
2023-03-19T08:25:45.373Z,95253.09
2023-03-19T08:28:12.459Z,95246.97
2023-03-19T08:30:39.561Z,95239.69
2023-03-19T08:33:06.773Z,95246.06
2023-03-19T08:35:33.388Z,95240.00
2023-03-19T08:38:00.112Z,95248.19
2023-03-19T08:40:26.944Z,95250.44
2023-03-19T08:42:54.341Z,95257.16
2023-03-19T08:45:21.102Z,95260.63
2023-03-19T08:47:48.193Z,95261.19
2023-03-19T08:50:15.882Z,95259.81
2023-03-19T08:52:42.450Z,95264.53
2023-03-19T08:55:10.520Z,95265.09
2023-03-19T08:57:37.369Z,95269.56
2023-03-19T09:00:08.220Z,95272.56
2023-03-19T09:02:36.128Z,95272.22
2023-03-19T09:05:02.791Z,95275.31
2023-03-19T09:07:29.451Z,95280.66
2023-03-19T09:09:56.114Z,95283.72
2023-03-19T09:12:22.646Z,95286.72
2023-03-19T09:14:49.714Z,95288.00
2023-03-19T09:17:18.079Z,95290.41
2023-03-19T09:19:44.725Z,95296.06
2023-03-19T09:22:11.300Z,95294.03
2023-03-19T09:24:40.475Z,95295.06
2023-03-19T09:27:07.420Z,95294.84
2023-03-19T09:29:34.282Z,95293.75
2023-03-19T09:32:00.912Z,95295.88
2023-03-19T09:34:27.798Z,95290.63
2023-03-19T09:36:55.012Z,95303.53
2023-03-19T09:39:21.552Z,95305.75
2023-03-19T09:42:03.914Z,95312.72
2023-03-19T09:44:44.157Z,95316.72
2023-03-19T09:47:21.279Z,95317.00
2023-03-19T09:49:49.089Z,95325.91
2023-03-19T09:52:47.972Z,95320.81
2023-03-19T09:55:23.505Z,95323.88
2023-03-19T09:57:51.298Z,95330.72
2023-03-19T10:00:24.587Z,95317.31
2023-03-19T10:03:05.300Z,95317.41
2023-03-19T10:05:59.644Z,95318.47
2023-03-19T10:08:42.758Z,95305.59
2023-03-19T10:11:32.485Z,95305.91
2023-03-19T10:14:43.314Z,95297.63
2023-03-19T10:17:19.562Z,95302.66
2023-03-19T10:19:57.648Z,95300.66
2023-03-19T10:22:34.781Z,95301.50
2023-03-19T10:25:02.749Z,95297.06
2023-03-19T10:27:29.633Z,95291.47
2023-03-19T10:29:56.715Z,95298.38
2023-03-19T10:32:41.896Z,95303.06
2023-03-19T10:35:27.440Z,95302.69
2023-03-19T10:37:55.218Z,95301.53
2023-03-19T10:40:36.227Z,95301.53
2023-03-19T10:43:20.958Z,95311.03
2023-03-19T10:45:49.094Z,95298.94
2023-03-19T10:48:17.746Z,95303.88
2023-03-19T10:50:52.855Z,95297.75
2023-03-19T10:53:19.307Z,95290.47
2023-03-19T10:56:06.447Z,95290.44
2023-03-19T10:58:35.766Z,95288.75
2023-03-19T11:01:09.625Z,95278.47
2023-03-19T11:03:37.817Z,95268.34
2023-03-19T11:06:07.801Z,95268.72
2023-03-19T11:08:36.997Z,95281.75
2023-03-19T11:11:03.998Z,95279.16
2023-03-19T11:13:33.552Z,95272.69
2023-03-19T11:16:00.868Z,95273.97
2023-03-19T11:18:30.331Z,95260.19
2023-03-19T11:21:25.052Z,95254.16
2023-03-19T11:23:59.388Z,95272.28
2023-03-19T11:26:28.575Z,95268.44
2023-03-19T11:29:02.292Z,95272.28
2023-03-19T11:31:47.930Z,95263.78
2023-03-19T11:34:27.834Z,95262.56
2023-03-19T11:37:12.992Z,95251.34
2023-03-19T11:40:03.341Z,95251.53
2023-03-19T11:42:46.497Z,95248.63
2023-03-19T11:45:22.876Z,95241.72
2023-03-19T11:48:27.174Z,95248.13
2023-03-19T11:51:12.302Z,95245.78
2023-03-19T11:54:22.065Z,95239.47
2023-03-19T11:56:55.618Z,95242.53
2023-03-19T11:59:43.666Z,95239.03
2023-03-19T12:02:37.825Z,95233.16
2023-03-19T12:05:18.978Z,95225.59
2023-03-19T12:07:57.859Z,95236.00
2023-03-19T12:10:59.084Z,95224.75
2023-03-19T12:13:39.328Z,95222.75
2023-03-19T12:16:30.875Z,95209.66
2023-03-19T12:19:26.987Z,95205.72
2023-03-19T12:22:06.573Z,95193.19
2023-03-19T12:24:40.003Z,95203.28
2023-03-19T12:27:33.640Z,95200.16
2023-03-19T12:30:17.059Z,95194.81
2023-03-19T12:33:11.548Z,95188.69
2023-03-19T12:35:41.023Z,95184.44
2023-03-19T12:38:45.421Z,95191.19
2023-03-19T12:41:29.565Z,95192.09
2023-03-19T12:44:06.220Z,95181.22
2023-03-19T12:46:38.994Z,95185.28
2023-03-19T12:49:11.545Z,95180.56
2023-03-19T12:51:45.455Z,95185.16
2023-03-19T12:54:28.878Z,95176.22
2023-03-19T12:57:12.208Z,95178.94
2023-03-19T13:00:10.291Z,95178.78
2023-03-19T13:02:44.181Z,95177.72
2023-03-19T13:05:32.428Z,95176.19
2023-03-19T13:08:12.057Z,95167.06
2023-03-19T13:10:39.018Z,95169.09
2023-03-19T13:13:36.495Z,95157.47
2023-03-19T13:16:18.849Z,95171.94
2023-03-19T13:19:10.388Z,95168.63
2023-03-19T13:21:39.791Z,95163.16
2023-03-19T13:24:27.700Z,95173.03
2023-03-19T13:26:56.326Z,95166.81
2023-03-19T13:29:31.639Z,95166.84
2023-03-19T13:32:25.566Z,95161.53
2023-03-19T13:35:28.512Z,95158.69
2023-03-19T13:38:20.525Z,95163.38
2023-03-19T13:40:52.982Z,95149.69
2023-03-19T13:43:40.873Z,95151.31
2023-03-19T13:46:13.421Z,95151.94
2023-03-19T13:48:45.908Z,95152.13
2023-03-19T13:51:12.376Z,95157.41
2023-03-19T13:54:23.765Z,95156.59
2023-03-19T13:57:01.216Z,95152.69
2023-03-19T13:59:33.373Z,95140.44
2023-03-19T14:02:02.119Z,95152.84
2023-03-19T14:04:32.233Z,95143.22
2023-03-19T14:07:15.943Z,95135.91
2023-03-19T14:09:45.843Z,95141.59
2023-03-19T14:12:29.844Z,95145.97
2023-03-19T14:15:08.007Z,95139.44
2023-03-19T14:17:38.292Z,95134.28
2023-03-19T14:20:12.573Z,95131.47
2023-03-19T14:23:08.700Z,95135.44
2023-03-19T14:26:05.748Z,95125.28
2023-03-19T14:28:44.570Z,95132.50
2023-03-19T14:31:26.622Z,95124.81
2023-03-19T14:33:59.581Z,95131.84
2023-03-19T14:36:28.343Z,95128.63
2023-03-19T14:39:08.900Z,95120.53
2023-03-19T14:41:43.230Z,95115.53
2023-03-19T14:44:22.956Z,95114.19
2023-03-19T14:46:58.730Z,95118.13
2023-03-19T14:49:51.721Z,95112.81
2023-03-19T14:52:59.723Z,95104.63
2023-03-19T14:55:35.784Z,95101.56
2023-03-19T14:58:02.901Z,95109.53
2023-03-19T15:00:37.247Z,95097.56
2023-03-19T15:03:03.764Z,95092.25
2023-03-19T15:05:36.684Z,95094.22
2023-03-19T15:08:07.281Z,95096.38
2023-03-19T15:11:02.464Z,95092.59
2023-03-19T15:13:35.248Z,95087.47
2023-03-19T15:16:24.842Z,95089.09
2023-03-19T15:18:51.621Z,95095.66
2023-03-19T15:21:18.802Z,95093.25
2023-03-19T15:23:46.822Z,95093.22
2023-03-19T15:26:13.638Z,95097.13
2023-03-19T15:28:49.268Z,95095.53
2023-03-19T15:31:31.702Z,95087.88
2023-03-19T15:34:21.076Z,95097.53
2023-03-19T15:37:01.200Z,95096.09
2023-03-19T15:39:33.467Z,95099.22
2023-03-19T15:42:02.090Z,95099.53
2023-03-19T15:44:33.814Z,95102.41
2023-03-19T15:47:03.677Z,95096.66
2023-03-19T15:49:37.257Z,95102.06
2023-03-19T15:52:08.400Z,95092.94
2023-03-19T15:54:35.360Z,95097.13
2023-03-19T15:57:02.066Z,95095.00
2023-03-19T15:59:31.418Z,95098.97
2023-03-19T16:02:01.237Z,95094.75
2023-03-19T16:04:30.229Z,95099.19
2023-03-19T16:06:58.701Z,95101.72
2023-03-19T16:09:29.713Z,95101.28
2023-03-19T16:11:57.085Z,95103.84
2023-03-19T16:14:29.650Z,95104.75
2023-03-19T16:17:02.282Z,95113.38
2023-03-19T16:19:37.683Z,95113.03
2023-03-19T16:22:31.408Z,95114.28
2023-03-19T16:24:59.133Z,95118.09
2023-03-19T16:27:39.842Z,95119.38
2023-03-19T16:30:21.356Z,95128.81
2023-03-19T16:32:59.248Z,95131.09
2023-03-19T16:35:28.051Z,95127.84
2023-03-19T16:37:54.996Z,95126.59
2023-03-19T16:40:21.450Z,95128.88
2023-03-19T16:42:50.888Z,95130.31
2023-03-19T16:45:22.089Z,95138.47
2023-03-19T16:47:54.090Z,95132.78
2023-03-19T16:50:22.985Z,95134.41
2023-03-19T16:52:50.031Z,95132.97
2023-03-19T16:55:28.489Z,95139.28
2023-03-19T16:58:11.466Z,95151.09
2023-03-19T17:00:38.861Z,95149.22
2023-03-19T17:03:12.364Z,95152.50
2023-03-19T17:05:38.943Z,95147.78
2023-03-19T17:08:05.560Z,95162.44
2023-03-19T17:10:33.367Z,95161.38
2023-03-19T17:13:00.818Z,95163.59
2023-03-19T17:15:37.124Z,95160.50
2023-03-19T17:18:12.841Z,95172.25
2023-03-19T17:20:49.515Z,95167.31
2023-03-19T17:23:16.210Z,95170.75
2023-03-19T17:25:43.751Z,95167.66
2023-03-19T17:28:10.281Z,95167.03
2023-03-19T17:30:38.298Z,95169.03
2023-03-19T17:33:05.549Z,95171.25
2023-03-19T17:35:33.940Z,95168.72
2023-03-19T17:38:00.717Z,95177.44
2023-03-19T17:40:27.986Z,95176.16
2023-03-19T17:42:55.838Z,95167.53
2023-03-19T17:45:29.566Z,95171.66
2023-03-19T17:47:58.390Z,95185.22
2023-03-19T17:50:31.386Z,95183.47
2023-03-19T17:52:58.545Z,95184.25
2023-03-19T17:55:28.027Z,95190.41
2023-03-19T17:57:55.943Z,95187.97
2023-03-19T18:00:24.566Z,95192.72
2023-03-19T18:02:53.978Z,95200.13
2023-03-19T18:05:23.519Z,95197.59
2023-03-19T18:07:53.383Z,95201.00
2023-03-19T18:10:30.178Z,95196.72
2023-03-19T18:12:59.902Z,95200.56
2023-03-19T18:15:28.777Z,95202.28
2023-03-19T18:17:56.977Z,95199.94
2023-03-19T18:20:28.062Z,95198.88
2023-03-19T18:22:54.650Z,95207.13
2023-03-19T18:25:23.802Z,95207.34
2023-03-19T18:27:50.901Z,95200.78
2023-03-19T18:30:21.598Z,95212.25
2023-03-19T18:32:52.585Z,95213.44
2023-03-19T18:35:24.497Z,95210.31
2023-03-19T18:37:52.103Z,95215.31
2023-03-19T18:40:30.175Z,95209.59
2023-03-19T18:42:57.290Z,95219.06
2023-03-19T18:45:28.466Z,95220.44
2023-03-19T18:47:56.846Z,95219.97
2023-03-19T18:50:32.411Z,95226.31
2023-03-19T18:52:58.980Z,95219.78
2023-03-19T18:55:30.363Z,95226.44
2023-03-19T18:58:02.785Z,95234.63
2023-03-19T19:00:32.186Z,95228.97
2023-03-19T19:03:00.471Z,95229.16
2023-03-19T19:05:29.650Z,95228.97
2023-03-19T19:08:01.693Z,95233.25
2023-03-19T19:10:34.461Z,95236.59
2023-03-19T19:13:02.143Z,95232.63
2023-03-19T19:15:36.311Z,95236.06
2023-03-19T19:18:23.435Z,95234.91
2023-03-19T19:20:52.444Z,95234.78
2023-03-19T19:23:20.563Z,95233.16
2023-03-19T19:25:50.756Z,95238.78
2023-03-19T19:28:21.588Z,95234.41
2023-03-19T19:30:49.533Z,95238.41
2023-03-19T19:33:20.269Z,95241.38
2023-03-19T19:35:46.966Z,95248.22
2023-03-19T19:38:13.588Z,95261.13
2023-03-19T19:40:42.999Z,95279.63
2023-03-19T19:43:22.759Z,95275.47
2023-03-19T19:45:52.694Z,95278.22
2023-03-19T19:48:25.498Z,95278.66
2023-03-19T19:50:53.117Z,95287.47
2023-03-19T19:53:20.566Z,95281.47
2023-03-19T19:55:47.764Z,95283.66
2023-03-19T19:58:32.450Z,95290.00
2023-03-19T20:01:03.728Z,95297.84
2023-03-19T20:03:33.060Z,95306.25
2023-03-19T20:06:01.861Z,95303.38
2023-03-19T20:08:28.801Z,95310.81
2023-03-19T20:10:56.881Z,95310.75
2023-03-19T20:13:35.291Z,95309.63
2023-03-19T20:16:02.691Z,95304.63
2023-03-19T20:18:32.739Z,95314.66
2023-03-19T20:20:59.602Z,95315.63
2023-03-19T20:23:26.574Z,95324.38
2023-03-19T20:25:53.650Z,95332.28
2023-03-19T20:28:33.953Z,95332.41
2023-03-19T20:31:01.520Z,95334.75
2023-03-19T20:33:31.095Z,95343.66
2023-03-19T20:35:58.454Z,95347.19
2023-03-19T20:38:27.086Z,95347.28
2023-03-19T20:40:56.398Z,95347.19
2023-03-19T20:43:33.305Z,95343.53
2023-03-19T20:46:04.314Z,95349.75
2023-03-19T20:48:32.046Z,95350.03
2023-03-19T20:51:00.012Z,95358.88
2023-03-19T20:53:26.987Z,95355.88
2023-03-19T20:55:54.006Z,95364.47
2023-03-19T20:58:30.762Z,95359.06
2023-03-19T21:00:58.552Z,95371.69
2023-03-19T21:03:27.689Z,95373.69
2023-03-19T21:06:21.690Z,95374.75
2023-03-19T21:08:53.214Z,95371.97
2023-03-19T21:11:29.205Z,95368.47
2023-03-19T21:13:55.773Z,95375.59
2023-03-19T21:16:25.511Z,95375.41
2023-03-19T21:18:53.853Z,95380.84
2023-03-19T21:21:34.406Z,95384.63
2023-03-19T21:24:15.489Z,95389.88
2023-03-19T21:26:42.846Z,95389.88
2023-03-19T21:29:28.911Z,95400.00
2023-03-19T21:31:56.688Z,95402.38
2023-03-19T21:34:23.566Z,95407.75
2023-03-19T21:36:50.797Z,95393.97
2023-03-19T21:39:17.775Z,95392.19
2023-03-19T21:41:46.215Z,95402.84
2023-03-19T21:44:16.539Z,95403.69
2023-03-19T21:46:46.400Z,95398.72
2023-03-19T21:49:13.014Z,95401.22
2023-03-19T21:51:39.663Z,95401.34
2023-03-19T21:54:06.179Z,95403.00
2023-03-19T21:56:38.974Z,95413.22
2023-03-19T21:59:19.087Z,95413.69
2023-03-19T22:01:46.594Z,95409.94
2023-03-19T22:04:13.279Z,95414.38
2023-03-19T22:06:40.244Z,95411.69
2023-03-19T22:09:06.809Z,95417.13
2023-03-19T22:11:36.691Z,95417.66
2023-03-19T22:14:14.232Z,95415.03
2023-03-19T22:16:40.935Z,95408.44
2023-03-19T22:19:11.953Z,95412.22
2023-03-19T22:21:38.470Z,95412.53
2023-03-19T22:24:05.257Z,95410.94
2023-03-19T22:26:34.604Z,95421.78
2023-03-19T22:29:04.796Z,95415.50
2023-03-19T22:31:32.367Z,95408.75
2023-03-19T22:33:59.221Z,95408.94
2023-03-19T22:36:25.950Z,95416.66
2023-03-19T22:38:52.480Z,95421.25
2023-03-19T22:41:29.044Z,95417.97
2023-03-19T22:43:57.050Z,95417.97
2023-03-19T22:46:24.981Z,95418.13
2023-03-19T22:48:52.117Z,95421.91
2023-03-19T22:51:21.602Z,95420.59
2023-03-19T22:53:48.535Z,95416.31
2023-03-19T22:56:16.420Z,95418.28
2023-03-19T22:58:43.649Z,95424.38
2023-03-19T23:01:28.775Z,95416.50
2023-03-19T23:03:56.212Z,95427.16
2023-03-19T23:06:30.690Z,95421.25
2023-03-19T23:08:58.046Z,95422.22
2023-03-19T23:11:24.783Z,95420.94
2023-03-19T23:13:51.707Z,95422.41
2023-03-19T23:16:23.876Z,95419.78
2023-03-19T23:18:51.664Z,95427.34
2023-03-19T23:21:19.675Z,95426.00
2023-03-19T23:23:46.816Z,95425.53
2023-03-19T23:26:29.151Z,95423.25
2023-03-19T23:29:06.503Z,95419.13
2023-03-19T23:31:34.895Z,95427.81
2023-03-19T23:34:01.600Z,95423.91
2023-03-19T23:36:28.176Z,95422.41
2023-03-19T23:38:54.697Z,95420.44
2023-03-19T23:41:24.941Z,95426.53
2023-03-19T23:43:52.907Z,95427.19
2023-03-19T23:46:20.133Z,95427.84
2023-03-19T23:48:46.802Z,95431.47
2023-03-19T23:51:14.902Z,95426.69
2023-03-19T23:53:42.349Z,95428.97
2023-03-19T23:56:18.461Z,95431.78
2023-03-19T23:58:47.176Z,95437.53
